createdAt,value
2023-05-22T00:01:14.986Z,11.89
2023-05-22T00:04:21.627Z,11.87
2023-05-22T00:07:24.449Z,11.74
2023-05-22T00:10:26.900Z,11.86
2023-05-22T00:13:29.326Z,11.80
2023-05-22T00:16:31.899Z,11.67
2023-05-22T00:19:35.165Z,11.58
2023-05-22T00:22:38.288Z,11.58
2023-05-22T00:25:41.327Z,11.59
2023-05-22T00:28:43.977Z,11.65
2023-05-22T00:31:46.391Z,11.65
2023-05-22T00:34:49.001Z,11.57
2023-05-22T00:37:51.414Z,11.59
2023-05-22T00:40:53.882Z,11.55
2023-05-22T00:43:56.252Z,11.45
2023-05-22T00:46:58.879Z,11.35
2023-05-22T00:50:01.654Z,11.45
2023-05-22T00:53:04.277Z,11.45
2023-05-22T00:56:07.428Z,11.41
2023-05-22T00:59:09.870Z,11.47
2023-05-22T01:02:13.699Z,11.45
2023-05-22T01:05:18.419Z,11.42
2023-05-22T01:08:21.596Z,11.41
2023-05-22T01:11:38.903Z,11.36
2023-05-22T01:14:48.091Z,11.38
2023-05-22T01:18:01.946Z,11.45
2023-05-22T01:21:13.171Z,11.31
2023-05-22T01:24:48.730Z,11.18
2023-05-22T01:28:03.938Z,11.13
2023-05-22T01:31:08.361Z,11.19
2023-05-22T01:34:14.411Z,11.21
2023-05-22T01:37:17.841Z,11.15
2023-05-22T01:40:20.353Z,11.02
2023-05-22T01:43:22.912Z,11.13
2023-05-22T01:46:29.497Z,10.95
2023-05-22T01:49:36.048Z,10.90
2023-05-22T01:52:52.464Z,10.87
2023-05-22T01:56:17.449Z,10.95
2023-05-22T01:59:49.846Z,10.89
2023-05-22T02:02:58.530Z,10.78
2023-05-22T02:06:05.614Z,10.57
2023-05-22T02:09:08.737Z,10.98
2023-05-22T02:12:14.333Z,11.02
2023-05-22T02:15:16.738Z,11.00
2023-05-22T02:18:19.361Z,10.92
2023-05-22T02:21:22.901Z,10.88
2023-05-22T02:24:25.708Z,10.89
2023-05-22T02:27:28.709Z,10.88
2023-05-22T02:30:31.191Z,10.78
2023-05-22T02:33:33.738Z,10.71
2023-05-22T02:36:37.439Z,10.77
2023-05-22T02:39:40.119Z,10.73
2023-05-22T02:42:42.509Z,10.77
2023-05-22T02:45:45.690Z,10.76
2023-05-22T02:48:48.264Z,10.58
2023-05-22T02:51:50.747Z,10.65
2023-05-22T02:54:53.169Z,10.74
2023-05-22T02:57:57.107Z,10.97
2023-05-22T03:01:00.825Z,11.04
2023-05-22T03:04:03.349Z,11.12
2023-05-22T03:07:07.366Z,11.23
2023-05-22T03:10:09.930Z,11.33
2023-05-22T03:13:12.600Z,11.46
2023-05-22T03:16:15.280Z,11.64
2023-05-22T03:19:20.916Z,11.64
2023-05-22T03:22:23.628Z,11.69
2023-05-22T03:25:26.463Z,11.71
2023-05-22T03:28:28.838Z,11.75
2023-05-22T03:31:33.061Z,11.83
2023-05-22T03:34:42.472Z,11.91
2023-05-22T03:37:47.258Z,12.03
2023-05-22T03:40:50.552Z,12.37
2023-05-22T03:43:53.169Z,12.80
2023-05-22T03:46:57.217Z,13.74
2023-05-22T03:49:59.599Z,14.24
2023-05-22T03:53:03.566Z,14.68
2023-05-22T03:56:06.815Z,14.96
2023-05-22T03:59:09.374Z,15.48
2023-05-22T04:02:13.233Z,15.85
2023-05-22T04:05:15.815Z,16.45
2023-05-22T04:08:19.339Z,16.86
2023-05-22T04:11:22.368Z,17.18
2023-05-22T04:14:24.778Z,17.09
2023-05-22T04:17:33.355Z,17.01
2023-05-22T04:20:35.945Z,17.07
2023-05-22T04:23:38.756Z,17.25
2023-05-22T04:26:42.583Z,17.27
2023-05-22T04:29:47.642Z,17.11
2023-05-22T04:32:50.082Z,16.83
2023-05-22T04:35:52.772Z,16.50
2023-05-22T04:38:55.837Z,16.79
2023-05-22T04:41:58.447Z,16.78
2023-05-22T04:45:01.558Z,17.40
2023-05-22T04:48:04.212Z,17.70
2023-05-22T04:51:10.316Z,18.31
2023-05-22T04:54:12.811Z,18.37
2023-05-22T04:57:15.226Z,18.82
2023-05-22T05:00:18.217Z,19.29
2023-05-22T05:03:22.982Z,19.55
2023-05-22T05:06:26.382Z,19.65
2023-05-22T05:09:28.842Z,19.86
2023-05-22T05:12:31.349Z,20.03
2023-05-22T05:15:34.309Z,20.27
2023-05-22T05:18:38.306Z,20.24
2023-05-22T05:21:41.183Z,20.27
2023-05-22T05:24:44.015Z,20.66
2023-05-22T05:27:46.787Z,21.00
2023-05-22T05:30:50.109Z,20.96
2023-05-22T05:34:11.247Z,20.90
2023-05-22T05:37:36.972Z,21.23
2023-05-22T05:40:42.123Z,21.12
2023-05-22T05:43:46.144Z,21.12
2023-05-22T05:46:48.954Z,21.75
2023-05-22T05:49:53.733Z,22.07
2023-05-22T05:52:56.405Z,22.49
2023-05-22T05:55:59.463Z,22.59
2023-05-22T05:59:04.453Z,22.66
2023-05-22T06:02:12.989Z,22.52
2023-05-22T06:05:19.576Z,22.88
2023-05-22T06:08:25.136Z,23.22
2023-05-22T06:11:28.353Z,23.30
2023-05-22T06:14:31.018Z,23.17
2023-05-22T06:17:34.854Z,22.78
2023-05-22T06:20:37.566Z,22.65
2023-05-22T06:23:40.652Z,23.04
2023-05-22T06:26:43.744Z,22.87
2023-05-22T06:29:47.844Z,22.77
2023-05-22T06:32:50.859Z,22.31
2023-05-22T06:35:55.592Z,22.51
2023-05-22T06:38:58.483Z,23.10
2023-05-22T06:42:36.210Z,22.65
2023-05-22T06:46:03.337Z,22.74
2023-05-22T06:49:26.458Z,22.85
2023-05-22T06:52:32.016Z,22.76
2023-05-22T06:55:35.154Z,22.91
2023-05-22T06:58:45.508Z,23.00
2023-05-22T07:01:48.504Z,23.01
2023-05-22T07:04:56.308Z,22.53
2023-05-22T07:08:12.470Z,22.47
2023-05-22T07:11:15.072Z,22.51
2023-05-22T07:14:18.312Z,22.37
2023-05-22T07:17:22.211Z,22.30
2023-05-22T07:20:26.430Z,22.14
2023-05-22T07:23:47.118Z,22.55
2023-05-22T07:26:49.691Z,22.26
2023-05-22T07:29:53.015Z,22.45
2023-05-22T07:32:56.807Z,22.37
2023-05-22T07:36:00.145Z,22.24
2023-05-22T07:39:02.617Z,22.16
2023-05-22T07:42:08.214Z,22.12
2023-05-22T07:45:17.511Z,22.13
2023-05-22T07:48:20.796Z,22.16
2023-05-22T07:51:23.537Z,22.05
2023-05-22T07:54:27.364Z,21.87
2023-05-22T07:57:30.390Z,21.82
2023-05-22T08:00:37.951Z,21.91
2023-05-22T08:03:40.588Z,21.93
2023-05-22T08:06:44.459Z,21.86
2023-05-22T08:09:46.967Z,21.88
2023-05-22T08:12:49.609Z,21.93
2023-05-22T08:16:00.424Z,21.72
2023-05-22T08:19:03.579Z,22.16
2023-05-22T08:22:06.194Z,21.97
2023-05-22T08:25:09.344Z,22.05
2023-05-22T08:28:12.031Z,21.98
2023-05-22T08:31:15.773Z,22.06
2023-05-22T08:34:18.258Z,22.04
2023-05-22T08:37:21.353Z,22.11
2023-05-22T08:40:24.867Z,22.08
2023-05-22T08:43:28.743Z,22.19
2023-05-22T08:46:31.812Z,22.08
2023-05-22T08:49:34.746Z,21.97
2023-05-22T08:52:48.468Z,21.98
2023-05-22T08:55:53.377Z,22.10
2023-05-22T08:58:56.320Z,22.11
2023-05-22T09:01:58.717Z,22.34
2023-05-22T09:05:02.221Z,22.42
2023-05-22T09:08:15.809Z,22.47
2023-05-22T09:11:22.845Z,22.38
2023-05-22T09:14:25.557Z,22.62
2023-05-22T09:17:28.013Z,22.61
2023-05-22T09:20:31.101Z,22.60
2023-05-22T09:23:33.725Z,22.68
2023-05-22T09:26:36.984Z,22.75
2023-05-22T09:29:53.418Z,22.84
2023-05-22T09:32:57.255Z,22.83
2023-05-22T09:36:00.427Z,22.75
2023-05-22T09:39:04.464Z,22.74
2023-05-22T09:42:06.983Z,22.69
2023-05-22T09:45:09.757Z,22.82
2023-05-22T09:48:13.128Z,22.89
2023-05-22T09:51:16.679Z,22.90
2023-05-22T09:54:21.852Z,22.92
2023-05-22T09:57:29.202Z,22.99
2023-05-22T10:00:34.322Z,22.98
2023-05-22T10:03:38.361Z,22.61
2023-05-22T10:06:41.982Z,22.84
2023-05-22T10:09:46.986Z,23.01
2023-05-22T10:12:54.095Z,23.10
2023-05-22T10:15:56.800Z,23.01
2023-05-22T10:18:59.547Z,23.24
2023-05-22T10:22:02.223Z,23.42
2023-05-22T10:25:05.623Z,23.69
2023-05-22T10:28:08.966Z,23.56
2023-05-22T10:31:34.770Z,23.86
2023-05-22T10:35:41.688Z,24.15
2023-05-22T10:38:59.050Z,24.28
2023-05-22T10:42:01.470Z,24.21
2023-05-22T10:45:05.532Z,24.13
2023-05-22T10:48:10.497Z,24.07
2023-05-22T10:51:19.514Z,24.17
2023-05-22T10:54:49.270Z,24.16
2023-05-22T10:57:57.087Z,24.21
2023-05-22T11:01:15.055Z,24.70
2023-05-22T11:04:19.315Z,24.51
2023-05-22T11:07:27.014Z,24.31
2023-05-22T11:10:53.366Z,24.09
2023-05-22T11:14:15.431Z,24.51
2023-05-22T11:17:21.009Z,24.78
2023-05-22T11:20:24.832Z,24.75
2023-05-22T11:23:29.878Z,24.99
2023-05-22T11:26:32.456Z,24.69
2023-05-22T11:29:35.753Z,24.29
2023-05-22T11:32:39.432Z,24.14
2023-05-22T11:35:43.409Z,24.43
2023-05-22T11:38:46.086Z,24.62
2023-05-22T11:41:49.051Z,24.53
2023-05-22T11:44:51.741Z,24.74
2023-05-22T11:47:54.724Z,24.52
2023-05-22T11:50:57.708Z,24.42
2023-05-22T11:54:00.244Z,24.37
2023-05-22T11:57:06.051Z,24.52
2023-05-22T12:00:10.936Z,24.42
2023-05-22T12:03:17.808Z,23.78
2023-05-22T12:06:20.472Z,23.43
2023-05-22T12:09:23.354Z,23.37
2023-05-22T12:12:26.393Z,24.14
2023-05-22T12:15:28.765Z,24.48
2023-05-22T12:18:37.854Z,24.49
2023-05-22T12:21:42.143Z,24.73
2023-05-22T12:24:49.342Z,24.81
2023-05-22T12:27:52.010Z,24.88
2023-05-22T12:30:58.263Z,25.05
2023-05-22T12:34:00.761Z,25.08
2023-05-22T12:37:03.197Z,24.92
2023-05-22T12:40:06.189Z,24.82
2023-05-22T12:43:08.575Z,25.17
2023-05-22T12:46:11.011Z,25.69
2023-05-22T12:49:13.449Z,25.86
2023-05-22T12:52:16.062Z,25.35
2023-05-22T12:55:18.573Z,25.32
2023-05-22T12:58:20.933Z,25.47
2023-05-22T13:01:24.453Z,25.29
2023-05-22T13:04:26.958Z,25.64
2023-05-22T13:07:29.306Z,26.14
2023-05-22T13:10:31.713Z,26.04
2023-05-22T13:13:34.164Z,24.85
2023-05-22T13:16:36.942Z,24.38
2023-05-22T13:19:39.435Z,23.94
2023-05-22T13:22:41.994Z,23.76
2023-05-22T13:25:44.387Z,23.52
2023-05-22T13:28:46.805Z,23.24
2023-05-22T13:31:49.232Z,23.10
2023-05-22T13:34:51.538Z,22.73
2023-05-22T13:37:54.352Z,22.69
2023-05-22T13:40:56.863Z,22.64
2023-05-22T13:43:59.311Z,22.88
2023-05-22T13:47:01.794Z,23.34
2023-05-22T13:50:05.350Z,23.91
2023-05-22T13:53:23.573Z,24.07
2023-05-22T13:56:26.324Z,24.65
2023-05-22T13:59:29.807Z,24.90
2023-05-22T14:02:32.401Z,24.99
2023-05-22T14:05:34.871Z,25.00
2023-05-22T14:08:37.268Z,24.95
2023-05-22T14:11:39.754Z,24.66
2023-05-22T14:14:42.264Z,24.38
2023-05-22T14:17:44.599Z,24.27
2023-05-22T14:20:47.139Z,24.35
2023-05-22T14:23:49.553Z,24.35
2023-05-22T14:26:51.989Z,24.32
2023-05-22T14:29:54.463Z,24.37
2023-05-22T14:32:56.828Z,24.61
2023-05-22T14:35:59.267Z,24.46
2023-05-22T14:39:01.627Z,24.65
2023-05-22T14:42:04.126Z,24.38
2023-05-22T14:45:06.797Z,24.26
2023-05-22T14:48:11.155Z,24.74
2023-05-22T14:51:13.911Z,24.71
2023-05-22T14:54:20.148Z,24.64
2023-05-22T14:57:22.645Z,24.60
2023-05-22T15:00:25.196Z,24.86
2023-05-22T15:03:27.625Z,24.88
2023-05-22T15:06:30.033Z,24.61
2023-05-22T15:09:32.722Z,24.77
2023-05-22T15:12:35.092Z,24.71
2023-05-22T15:15:37.538Z,24.74
2023-05-22T15:18:40.066Z,25.03
2023-05-22T15:21:42.709Z,24.68
2023-05-22T15:24:48.310Z,24.59
2023-05-22T15:27:50.611Z,24.70
2023-05-22T15:30:53.130Z,24.88
2023-05-22T15:33:55.624Z,24.66
2023-05-22T15:36:57.993Z,24.50
2023-05-22T15:40:05.929Z,24.36
2023-05-22T15:43:08.692Z,24.23
2023-05-22T15:46:14.559Z,24.23
2023-05-22T15:49:17.046Z,24.36
2023-05-22T15:52:21.145Z,24.50
2023-05-22T15:55:23.697Z,24.40
2023-05-22T15:58:26.124Z,24.23
2023-05-22T16:01:29.612Z,24.12
2023-05-22T16:04:32.366Z,23.98
2023-05-22T16:07:34.977Z,23.85
2023-05-22T16:10:37.927Z,23.83
2023-05-22T16:13:40.506Z,23.56
2023-05-22T16:16:43.806Z,23.67
2023-05-22T16:19:46.188Z,23.65
2023-05-22T16:22:49.186Z,23.64
2023-05-22T16:25:51.596Z,23.74
2023-05-22T16:28:53.992Z,23.75
2023-05-22T16:31:57.235Z,23.77
2023-05-22T16:34:59.986Z,23.67
2023-05-22T16:38:03.096Z,23.41
2023-05-22T16:41:05.549Z,23.31
2023-05-22T16:44:08.300Z,23.22
2023-05-22T16:47:10.858Z,23.09
2023-05-22T16:50:13.531Z,23.02
2023-05-22T16:53:19.667Z,23.01
2023-05-22T16:56:25.368Z,22.87
2023-05-22T16:59:28.889Z,22.83
2023-05-22T17:02:32.138Z,22.77
2023-05-22T17:05:35.593Z,22.59
2023-05-22T17:08:40.923Z,22.62
2023-05-22T17:11:43.613Z,23.13
2023-05-22T17:14:46.457Z,23.55
2023-05-22T17:17:49.583Z,23.70
2023-05-22T17:20:56.632Z,23.53
2023-05-22T17:24:01.625Z,23.26
2023-05-22T17:27:04.672Z,22.58
2023-05-22T17:30:08.631Z,22.14
2023-05-22T17:33:13.291Z,21.67
2023-05-22T17:36:16.569Z,21.30
2023-05-22T17:39:22.462Z,20.98
2023-05-22T17:42:25.651Z,20.76
2023-05-22T17:45:28.625Z,20.67
2023-05-22T17:48:34.302Z,20.45
2023-05-22T17:51:37.657Z,20.36
2023-05-22T17:54:43.294Z,20.17
2023-05-22T17:57:46.635Z,20.31
2023-05-22T18:00:49.414Z,20.24
2023-05-22T18:03:55.360Z,19.98
2023-05-22T18:06:58.384Z,19.67
2023-05-22T18:10:01.447Z,19.56
2023-05-22T18:13:04.644Z,19.47
2023-05-22T18:16:08.132Z,19.10
2023-05-22T18:19:11.584Z,19.00
2023-05-22T18:22:19.371Z,18.87
2023-05-22T18:25:22.064Z,18.71
2023-05-22T18:28:28.364Z,18.57
2023-05-22T18:31:31.309Z,18.35
2023-05-22T18:34:36.516Z,18.29
2023-05-22T18:37:40.823Z,18.18
2023-05-22T18:40:45.026Z,18.04
2023-05-22T18:43:48.875Z,18.11
2023-05-22T18:46:52.438Z,17.98
2023-05-22T18:49:56.572Z,17.74
2023-05-22T18:53:00.799Z,17.66
2023-05-22T18:56:04.156Z,17.58
2023-05-22T18:59:08.819Z,17.48
2023-05-22T19:02:13.093Z,17.21
2023-05-22T19:05:17.351Z,17.20
2023-05-22T19:08:21.171Z,16.97
2023-05-22T19:11:26.422Z,16.92
2023-05-22T19:14:31.152Z,16.81
2023-05-22T19:17:35.940Z,16.82
2023-05-22T19:20:42.975Z,16.74
2023-05-22T19:23:46.904Z,16.58
2023-05-22T19:26:51.153Z,16.67
2023-05-22T19:29:55.060Z,16.59
2023-05-22T19:32:59.151Z,16.45
2023-05-22T19:36:07.924Z,16.54
2023-05-22T19:39:15.215Z,16.39
2023-05-22T19:42:19.298Z,16.43
2023-05-22T19:45:22.956Z,16.32
2023-05-22T19:48:26.507Z,16.04
2023-05-22T19:51:30.153Z,15.87
2023-05-22T19:54:34.003Z,15.92
2023-05-22T19:57:45.463Z,16.02
2023-05-22T20:00:49.899Z,15.99
2023-05-22T20:03:56.883Z,15.86
2023-05-22T20:07:00.585Z,15.59
2023-05-22T20:10:07.493Z,15.41
2023-05-22T20:13:11.472Z,15.20
2023-05-22T20:16:16.370Z,14.99
2023-05-22T20:19:20.698Z,14.86
2023-05-22T20:22:24.626Z,14.75
2023-05-22T20:25:28.252Z,14.56
2023-05-22T20:28:32.655Z,14.43
2023-05-22T20:31:37.489Z,14.32
2023-05-22T20:34:42.007Z,14.23
2023-05-22T20:37:46.342Z,14.12
2023-05-22T20:40:48.874Z,14.06
2023-05-22T20:43:54.442Z,14.02
2023-05-22T20:46:56.990Z,13.94
2023-05-22T20:49:59.385Z,13.99
2023-05-22T20:53:01.855Z,13.94
2023-05-22T20:56:04.250Z,13.85
2023-05-22T20:59:06.638Z,13.77
2023-05-22T21:02:09.090Z,13.70
2023-05-22T21:05:11.681Z,13.63
2023-05-22T21:08:14.130Z,13.57
2023-05-22T21:11:19.986Z,13.49
2023-05-22T21:14:22.472Z,13.57
2023-05-22T21:17:25.222Z,13.53
2023-05-22T21:20:27.757Z,13.43
2023-05-22T21:23:30.127Z,13.40
2023-05-22T21:26:32.581Z,13.29
2023-05-22T21:29:35.211Z,13.18
2023-05-22T21:32:37.754Z,13.17
2023-05-22T21:35:40.231Z,13.20
2023-05-22T21:38:42.705Z,13.05
2023-05-22T21:41:45.117Z,12.97
2023-05-22T21:44:47.934Z,13.00
2023-05-22T21:47:50.383Z,13.02
2023-05-22T21:50:52.768Z,12.98
2023-05-22T21:53:55.121Z,12.89
2023-05-22T21:56:57.561Z,12.85
2023-05-22T21:59:59.993Z,12.87
2023-05-22T22:03:02.914Z,12.79
2023-05-22T22:06:05.685Z,12.72
2023-05-22T22:09:09.325Z,12.73
2023-05-22T22:12:12.265Z,12.76
2023-05-22T22:15:14.752Z,12.68
2023-05-22T22:18:17.233Z,12.63
2023-05-22T22:21:19.629Z,12.52
2023-05-22T22:24:22.302Z,12.46
2023-05-22T22:27:24.963Z,12.41
2023-05-22T22:30:27.279Z,12.52
2023-05-22T22:33:30.581Z,12.48
2023-05-22T22:36:33.669Z,12.53
2023-05-22T22:39:36.121Z,12.52
2023-05-22T22:42:38.395Z,12.46
2023-05-22T22:45:41.169Z,12.37
2023-05-22T22:48:43.828Z,12.37
2023-05-22T22:51:46.304Z,12.25
2023-05-22T22:54:49.185Z,12.19
2023-05-22T22:57:52.065Z,12.31
2023-05-22T23:00:54.765Z,12.23
2023-05-22T23:03:57.153Z,12.36
2023-05-22T23:06:59.754Z,12.29
2023-05-22T23:10:02.237Z,12.26
2023-05-22T23:13:04.964Z,12.35
2023-05-22T23:16:07.559Z,12.43
2023-05-22T23:19:11.556Z,12.36
2023-05-22T23:22:14.190Z,12.22
2023-05-22T23:25:16.631Z,12.17
2023-05-22T23:28:19.005Z,12.18
2023-05-22T23:31:26.018Z,12.19
2023-05-22T23:34:28.593Z,12.10
2023-05-22T23:37:30.991Z,12.10
2023-05-22T23:40:33.424Z,12.17
2023-05-22T23:43:36.031Z,12.20
2023-05-22T23:46:39.855Z,12.21
2023-05-22T23:49:42.347Z,12.21
2023-05-22T23:52:44.809Z,12.26
2023-05-22T23:55:47.304Z,12.20
2023-05-22T23:58:49.636Z,12.16
